Time;durP1;ratioP1;P1;durP2;ratioP2;P2;SDS_P1;SDS_P2;PMS_P1;PMS_P2;Temp;Humidity;BMP_temperature;BMP_pressure;BME280_temperature;BME280_humidity;BME280_pressure;Samples;Min_cycle;Max_cycle;Signal;HPM_P1;HPM_P2
2024/01/22 00:00:05;;;;;;;11.52;6.32;;;;;;;12.36;72.42;100631.59;5034586;28;20382;-48
2024/01/22 00:02:30;;;;;;;12.80;6.65;;;;;;;11.91;73.53;100608.81;5034006;28;20063;-47
2024/01/22 00:04:56;;;;;;;12.50;6.88;;;;;;;12.63;71.74;100628.13;5033154;28;20171;-45
2024/01/22 00:07:21;;;;;;;12.02;6.68;;;;;;;12.50;71.72;100625.50;5033896;28;20492;-51
2024/01/22 00:09:46;;;;;;;18.70;7.05;;;;;;;12.43;72.50;100612.44;5034333;28;20033;-48
2024/01/22 00:12:13;;;;;;;12.57;6.10;;;;;;;12.61;71.40;100599.41;5034836;28;20029;-46
2024/01/22 00:14:38;;;;;;;12.25;6.43;;;;;;;12.37;71.87;100583.69;5035099;28;20033;-45
2024/01/22 00:17:03;;;;;;;13.15;6.30;;;;;;;12.31;72.65;100589.78;5034101;28;20033;-48
2024/01/22 00:19:29;;;;;;;12.88;6.20;;;;;;;12.53;72.30;100595.88;5033620;28;20037;-49
2024/01/22 00:21:54;;;;;;;12.60;6.20;;;;;;;12.98;70.66;100577.59;5033787;28;20507;-45
2024/01/22 00:24:19;;;;;;;11.90;6.07;;;;;;;12.73;71.13;100564.53;5033223;28;20044;-47
2024/01/22 00:26:45;;;;;;;11.82;6.00;;;;;;;12.89;70.88;100592.41;5033125;28;20055;-45
2024/01/22 00:29:10;;;;;;;14.43;6.38;;;;;;;12.89;70.75;100577.59;5033166;28;20123;-47
2024/01/22 00:31:35;;;;;;;12.82;5.68;;;;;;;13.04;69.92;100562.75;5032353;28;20464;-45
2024/01/22 00:34:01;;;;;;;10.85;5.75;;;;;;;13.10;70.39;100554.88;5032853;28;20487;-48
2024/01/22 00:36:27;;;;;;;14.88;5.90;;;;;;;12.79;70.90;100554.94;5032166;28;20178;-46
2024/01/22 00:38:52;;;;;;;11.43;5.60;;;;;;;12.84;71.05;100561.03;5033245;28;20502;-46
2024/01/22 00:41:18;;;;;;;11.13;5.63;;;;;;;12.67;70.71;100562.78;5032330;28;20042;-46
2024/01/22 00:43:43;;;;;;;11.70;5.60;;;;;;;13.38;68.44;100559.19;5033300;28;20029;-45
2024/01/22 00:46:09;;;;;;;10.02;5.60;;;;;;;12.81;70.16;100552.28;5031241;28;20116;-45
2024/01/22 00:48:34;;;;;;;10.30;5.25;;;;;;;13.26;70.03;100544.41;5016166;28;20038;-51
2024/01/22 00:50:59;;;;;;;10.85;6.03;;;;;;;13.34;69.18;100553.13;5032344;28;20324;-46
2024/01/22 00:53:25;;;;;;;11.63;5.50;;;;;;;13.30;69.37;100545.25;5030890;28;20029;-46
2024/01/22 00:55:50;;;;;;;10.40;5.38;;;;;;;13.33;70.27;100548.75;5032395;28;20114;-45
2024/01/22 00:58:15;;;;;;;9.57;5.13;;;;;;;13.32;70.86;100541.75;5030724;28;20025;-48
2024/01/22 01:00:41;;;;;;;11.68;5.63;;;;;;;13.23;71.67;100543.56;5031179;28;20447;-46
2024/01/22 01:03:07;;;;;;;10.85;5.30;;;;;;;12.92;73.14;100532.25;5033003;28;20083;-48
2024/01/22 01:05:32;;;;;;;9.45;4.97;;;;;;;12.83;74.73;100520.03;5030293;28;20033;-45
2024/01/22 01:07:58;;;;;;;10.13;4.82;;;;;;;13.22;74.01;100518.25;5032737;28;20036;-48
2024/01/22 01:10:23;;;;;;;11.63;5.00;;;;;;;13.22;73.61;100477.22;5032051;28;20034;-48
2024/01/22 01:12:48;;;;;;;10.95;5.20;;;;;;;12.66;75.68;100476.47;5032561;28;20049;-46
2024/01/22 01:15:14;;;;;;;10.75;4.72;;;;;;;13.17;74.73;100475.50;5032476;28;20100;-48
2024/01/22 01:17:39;;;;;;;15.55;5.50;;;;;;;13.24;74.72;100449.28;5034663;28;20474;-48
2024/01/22 01:20:05;;;;;;;8.95;4.90;;;;;;;12.76;75.26;100424.13;5033869;28;20029;-46
2024/01/22 01:22:33;;;;;;;10.85;4.90;;;;;;;13.06;74.57;100472.88;5032980;28;20045;-44
2024/01/22 01:24:59;;;;;;;11.07;4.30;;;;;;;12.95;75.28;100441.50;5032490;28;20032;-49
2024/01/22 01:27:24;;;;;;;10.02;4.60;;;;;;;13.39;73.66;100445.75;5031289;28;20034;-49
2024/01/22 01:29:49;;;;;;;9.45;4.38;;;;;;;13.41;73.56;100438.75;5032062;28;20415;-47
2024/01/22 01:32:15;;;;;;;11.18;4.60;;;;;;;13.24;73.83;100457.13;5031606;28;20129;-46
2024/01/22 01:34:40;;;;;;;7.53;3.90;;;;;;;13.26;73.95;100426.59;5032484;28;20098;-52
2024/01/22 01:37:05;;;;;;;8.82;4.20;;;;;;;13.76;72.09;100433.31;5031435;28;20091;-48
2024/01/22 01:39:31;;;;;;;8.65;3.95;;;;;;;13.62;72.10;100427.28;5031332;28;20099;-49
2024/01/22 01:41:56;;;;;;;10.55;3.92;;;;;;;13.42;72.80;100409.03;5032060;28;20438;-46
2024/01/22 01:44:36;;;;;;;8.35;3.78;;;;;;;13.28;74.13;100411.75;5031613;28;20044;-45
2024/01/22 01:47:02;;;;;;;9.82;3.65;;;;;;;13.42;74.61;100380.25;5031205;28;20042;-45
2024/01/22 01:49:27;;;;;;;9.48;3.67;;;;;;;13.40;73.64;100361.06;5029500;28;20415;-45
2024/01/22 01:51:52;;;;;;;6.40;3.33;;;;;;;13.48;74.97;100363.66;5032110;28;20030;-45
2024/01/22 01:54:18;;;;;;;10.32;3.70;;;;;;;13.46;75.80;100376.75;5030283;28;20069;-50
2024/01/22 01:56:43;;;;;;;8.27;3.50;;;;;;;13.17;77.43;100369.06;5031079;28;20111;-48
2024/01/22 01:59:09;;;;;;;8.30;3.65;;;;;;;13.50;75.80;100356.63;5031182;28;20449;-48
2024/01/22 02:01:34;;;;;;;9.95;3.65;;;;;;;13.45;77.03;100379.38;5030271;28;20029;-50
2024/01/22 02:04:00;;;;;;;7.30;3.30;;;;;;;13.19;77.66;100338.50;5026834;28;20124;-46
2024/01/22 02:06:25;;;;;;;7.90;3.63;;;;;;;13.40;77.12;100330.53;5030631;28;20061;-46
2024/01/22 02:08:52;;;;;;;6.63;3.05;;;;;;;13.27;76.98;100312.28;5031843;28;20116;-46
2024/01/22 02:11:21;;;;;;;9.43;3.45;;;;;;;13.48;76.82;100319.13;5030848;28;20040;-47
2024/01/22 02:13:47;;;;;;;7.78;3.40;;;;;;;13.26;78.05;100326.25;5031481;28;20045;-46
2024/01/22 02:16:12;;;;;;;6.13;3.20;;;;;;;13.42;77.59;100319.19;5030284;28;20029;-48
2024/01/22 02:18:37;;;;;;;9.98;3.67;;;;;;;13.52;77.52;100311.25;5030796;28;20120;-46
2024/01/22 02:21:03;;;;;;;6.40;3.22;;;;;;;13.53;77.89;100326.06;5031477;28;20083;-46
2024/01/22 02:23:28;;;;;;;8.05;3.33;;;;;;;13.51;77.33;100301.63;5030635;28;20523;-46
2024/01/22 02:25:53;;;;;;;7.43;3.20;;;;;;;13.18;78.89;100297.50;5030848;28;20571;-46
2024/01/22 02:28:18;;;;;;;6.95;3.28;;;;;;;12.97;79.53;100298.47;5030807;28;20041;-46
2024/01/22 02:30:44;;;;;;;8.27;2.95;;;;;;;13.21;79.55;100299.25;5029610;28;20041;-47
2024/01/22 02:33:09;;;;;;;5.93;3.25;;;;;;;13.18;78.64;100294.00;5030466;28;20113;-50
2024/01/22 02:35:35;;;;;;;7.57;3.03;;;;;;;13.42;77.58;100316.56;5030938;28;20570;-50
2024/01/22 02:38:00;;;;;;;7.13;3.40;;;;;;;13.41;78.19;100299.97;5031441;28;20036;-46
2024/01/22 02:40:25;;;;;;;8.52;3.13;;;;;;;13.48;78.37;100285.09;5030326;28;20084;-47
2024/01/22 02:42:51;;;;;;;6.32;3.00;;;;;;;13.76;76.91;100286.59;5030931;28;20037;-47
2024/01/22 02:45:16;;;;;;;5.32;2.58;;;;;;;13.49;77.40;100239.66;5030276;28;20033;-46
2024/01/22 02:47:42;;;;;;;5.43;2.60;;;;;;;13.09;78.22;100288.81;5030492;28;20033;-47
2024/01/22 02:50:07;;;;;;;6.82;2.60;;;;;;;13.58;77.73;100278.88;5030398;28;20037;-49
2024/01/22 02:52:33;;;;;;;5.45;2.30;;;;;;;13.59;77.12;100250.06;5030208;28;20033;-46
2024/01/22 02:54:58;;;;;;;5.68;2.55;;;;;;;14.05;75.82;100263.59;5030443;28;20444;-48
2024/01/22 02:57:23;;;;;;;5.10;2.40;;;;;;;14.33;74.62;100277.28;5030092;28;20504;-49
2024/01/22 02:59:49;;;;;;;5.32;2.83;;;;;;;13.71;77.49;100260.44;5030967;28;20023;-50
2024/01/22 03:02:14;;;;;;;4.75;2.60;;;;;;;13.96;76.81;100247.09;5029923;28;20029;-48
2024/01/22 03:04:39;;;;;;;4.20;2.22;;;;;;;13.88;77.05;100241.94;5030900;28;20040;-47
2024/01/22 03:07:05;;;;;;;5.47;2.47;;;;;;;14.00;77.07;100235.69;5030439;28;20038;-46
2024/01/22 03:09:30;;;;;;;4.50;2.28;;;;;;;13.93;77.50;100231.41;5030625;28;20120;-46
2024/01/22 03:11:55;;;;;;;6.28;2.45;;;;;;;13.93;77.42;100245.38;5030815;28;20045;-47
2024/01/22 03:14:20;;;;;;;5.05;2.42;;;;;;;13.85;77.80;100231.47;5030302;28;20120;-46
2024/01/22 03:16:46;;;;;;;4.13;2.15;;;;;;;13.44;80.24;100231.88;5031939;28;20072;-47
2024/01/22 03:19:11;;;;;;;4.35;2.38;;;;;;;13.29;81.19;100240.72;5032672;28;20712;-46
2024/01/22 03:21:37;;;;;;;4.15;2.25;;;;;;;13.46;81.13;100258.91;5035189;28;20043;-48
2024/01/22 03:24:02;;;;;;;7.07;2.00;;;;;;;14.09;78.56;100240.81;5030629;28;20500;-45
2024/01/22 03:26:28;;;;;;;3.15;2.20;;;;;;;13.58;80.52;100240.47;5031409;28;20069;-45
2024/01/22 03:28:54;;;;;;;4.53;2.10;;;;;;;13.57;80.27;100227.38;5031801;28;20041;-44
2024/01/22 03:31:29;;;;;;;5.38;2.45;;;;;;;13.83;79.95;100222.78;5030770;28;20500;-46
2024/01/22 03:33:56;;;;;;;3.97;2.45;;;;;;;13.90;78.15;100220.97;5030576;28;20522;-48
2024/01/22 03:36:22;;;;;;;6.38;2.28;;;;;;;13.63;80.58;100228.19;5028403;28;20044;-45
2024/01/22 03:38:48;;;;;;;5.88;2.42;;;;;;;13.69;80.44;100232.50;5011257;28;20029;-48
2024/01/22 03:41:13;;;;;;;4.43;2.25;;;;;;;13.53;81.31;100221.31;5029953;28;20033;-48
2024/01/22 03:43:41;;;;;;;4.68;2.35;;;;;;;13.85;80.10;100238.47;5030960;28;20032;-45
2024/01/22 03:46:07;;;;;;;4.07;2.30;;;;;;;13.28;81.92;100218.03;5029035;28;20029;-43
2024/01/22 03:48:32;;;;;;;4.70;2.22;;;;;;;13.81;81.01;100225.41;5030517;28;20029;-44
2024/01/22 03:50:57;;;;;;;3.55;2.22;;;;;;;13.42;83.18;100245.88;5028597;28;20037;-48
2024/01/22 03:53:23;;;;;;;5.63;2.50;;;;;;;13.46;82.02;100214.41;5029647;28;20068;-48
2024/01/22 03:55:48;;;;;;;5.00;2.40;;;;;;;13.93;81.13;100208.69;5029445;28;20507;-50
2024/01/22 03:58:13;;;;;;;4.82;2.33;;;;;;;13.92;81.45;100227.91;5029378;28;20032;-47
2024/01/22 04:00:39;;;;;;;4.10;2.45;;;;;;;13.40;82.37;100225.78;5028610;28;20112;-49
2024/01/22 04:03:05;;;;;;;3.20;2.38;;;;;;;13.81;82.85;100217.53;5029902;28;20041;-50
2024/01/22 04:05:31;;;;;;;4.22;2.45;;;;;;;13.68;82.06;100218.53;5029543;28;20025;-50
2024/01/22 04:07:56;;;;;;;4.10;2.47;;;;;;;13.53;83.64;100210.84;5029820;28;20128;-46
2024/01/22 04:10:22;;;;;;;4.32;2.45;;;;;;;13.32;83.77;100209.28;5029209;28;20083;-46
2024/01/22 04:12:47;;;;;;;4.90;2.72;;;;;;;13.82;81.67;100221.91;5029693;28;20037;-47
2024/01/22 04:15:13;;;;;;;4.72;2.78;;;;;;;13.41;83.26;100221.44;5029554;28;20036;-50
2024/01/22 04:17:38;;;;;;;6.25;2.80;;;;;;;13.48;83.49;100210.00;5029514;28;20056;-47
2024/01/22 04:20:04;;;;;;;4.88;3.10;;;;;;;13.74;83.00;100228.09;5029852;28;20068;-48
2024/01/22 04:22:29;;;;;;;5.90;2.83;;;;;;;13.53;82.99;100229.19;5029102;28;20495;-47
2024/01/22 04:24:55;;;;;;;5.97;3.13;;;;;;;13.97;82.06;100204.25;5029363;28;20040;-47
2024/01/22 04:27:20;;;;;;;5.72;2.85;;;;;;;14.26;80.44;100227.53;5028667;28;20045;-46
2024/01/22 04:29:46;;;;;;;4.43;2.97;;;;;;;13.85;82.45;100222.72;5029280;28;20033;-50
2024/01/22 04:32:11;;;;;;;5.22;2.90;;;;;;;14.03;80.32;100212.06;5028707;28;20083;-49
2024/01/22 04:34:39;;;;;;;5.20;3.17;;;;;;;13.63;81.38;100225.59;5029363;28;20537;-45
2024/01/22 04:37:05;;;;;;;4.15;3.00;;;;;;;13.48;83.18;100236.19;5028735;28;20029;-50
2024/01/22 04:39:31;;;;;;;5.35;2.92;;;;;;;13.80;81.67;100255.09;5028917;28;20033;-47
2024/01/22 04:41:56;;;;;;;5.10;2.88;;;;;;;14.17;81.00;100234.63;5032629;28;20566;-46
2024/01/22 04:44:22;;;;;;;4.25;3.00;;;;;;;13.76;82.60;100245.53;5032552;28;20037;-48
2024/01/22 04:46:47;;;;;;;4.55;2.58;;;;;;;14.35;80.70;100245.78;5032339;28;20065;-44
2024/01/22 04:49:12;;;;;;;3.80;2.58;;;;;;;14.39;80.10;100243.16;5032332;28;20404;-50
2024/01/22 04:51:42;;;;;;;5.40;3.53;;;;;;;13.98;82.54;100243.56;5032436;28;20041;-46
2024/01/22 04:54:07;;;;;;;5.28;3.22;;;;;;;13.89;82.38;100227.94;5033070;28;20407;-46
2024/01/22 04:56:37;;;;;;;4.70;3.20;;;;;;;14.41;80.32;100216.88;5032143;28;20048;-44
2024/01/22 04:59:02;;;;;;;4.63;2.80;;;;;;;13.91;82.76;100220.06;5033058;28;20102;-47
2024/01/22 05:01:27;;;;;;;5.65;3.30;;;;;;;14.16;81.97;100243.38;5032602;28;20041;-48
2024/01/22 05:03:52;;;;;;;5.95;3.20;;;;;;;13.91;82.63;100255.00;5033233;28;20227;-48
2024/01/22 05:06:18;;;;;;;5.30;3.40;;;;;;;13.95;82.33;100227.88;5032383;28;20051;-48
2024/01/22 05:08:43;;;;;;;6.82;3.38;;;;;;;13.82;83.33;100227.16;5032263;28;20029;-46
2024/01/22 05:11:08;;;;;;;5.57;3.60;;;;;;;14.03;82.69;100227.78;5034099;28;20033;-47
2024/01/22 05:13:34;;;;;;;5.47;3.50;;;;;;;14.09;82.68;100236.44;5014897;28;20121;-47
2024/01/22 05:16:00;;;;;;;6.18;3.45;;;;;;;14.15;82.81;100241.63;5013349;28;20030;-51
2024/01/22 05:18:25;;;;;;;5.40;3.80;;;;;;;14.12;83.51;100246.03;5012808;28;20177;-51
2024/01/22 05:20:50;;;;;;;6.13;3.80;;;;;;;14.28;82.49;100231.88;5011750;28;20080;-44
2024/01/22 05:23:16;;;;;;;5.75;3.50;;;;;;;13.84;83.33;100245.47;5008853;28;20056;-47
2024/01/22 05:25:41;;;;;;;7.32;3.47;;;;;;;14.22;82.66;100240.66;5013094;28;20045;-49
2024/01/22 05:28:07;;;;;;;6.22;3.22;;;;;;;13.86;83.71;100246.31;5013128;28;20137;-45
2024/01/22 05:30:32;;;;;;;5.97;2.78;;;;;;;13.96;83.00;100245.34;5012495;28;20030;-47
2024/01/22 05:32:57;;;;;;;8.75;2.60;;;;;;;14.35;82.14;100236.16;5012284;28;20112;-46
2024/01/22 05:35:23;;;;;;;14.27;2.35;;;;;;;14.14;82.61;100229.44;5011213;28;20038;-49
2024/01/22 05:37:49;;;;;;;12.02;2.50;;;;;;;14.69;80.30;100234.03;5012002;28;20125;-47
2024/01/22 05:40:14;;;;;;;15.15;2.40;;;;;;;14.42;80.50;100250.97;5011504;28;20121;-48
2024/01/22 05:42:40;;;;;;;17.23;2.45;;;;;;;14.61;79.75;100234.13;5012151;28;20564;-45
2024/01/22 05:45:06;;;;;;;15.10;2.33;;;;;;;14.78;78.20;100248.75;5010573;28;20519;-47
2024/01/22 05:47:31;;;;;;;19.50;2.72;;;;;;;14.20;79.64;100252.09;5042739;28;20090;-48
2024/01/22 05:49:56;;;;;;;24.98;3.25;;;;;;;14.81;77.05;100252.22;5011895;28;20042;-50
2024/01/22 05:52:22;;;;;;;20.23;3.38;;;;;;;14.32;78.00;100270.28;5010536;28;20034;-47
2024/01/22 05:54:47;;;;;;;20.27;3.35;;;;;;;14.87;76.04;100260.00;5011989;28;20491;-47
2024/01/22 05:57:12;;;;;;;20.08;3.08;;;;;;;14.68;76.58;100281.25;5011141;28;20117;-47
2024/01/22 05:59:39;;;;;;;28.33;2.90;;;;;;;14.71;76.58;100260.22;5012007;28;20034;-47
2024/01/22 06:02:05;;;;;;;21.23;3.35;;;;;;;14.86;75.96;100273.13;5012787;28;20151;-45
2024/01/22 06:04:30;;;;;;;23.92;3.50;;;;;;;14.70;75.20;100284.75;5012075;28;20042;-45
2024/01/22 06:06:56;;;;;;;28.98;3.97;;;;;;;14.69;74.58;100273.38;5012853;28;20052;-46
2024/01/22 06:09:21;;;;;;;24.50;3.60;;;;;;;14.75;75.08;100282.91;5012045;28;20042;-44
2024/01/22 06:11:46;;;;;;;25.75;3.55;;;;;;;14.89;74.21;100284.44;5010784;28;20466;-46
2024/01/22 06:14:11;;;;;;;25.10;3.75;;;;;;;14.56;75.29;100274.41;5010698;28;20104;-49
2024/01/22 06:16:37;;;;;;;26.25;4.10;;;;;;;14.69;74.98;100275.13;5010362;28;20053;-46
2024/01/22 06:19:02;;;;;;;32.50;3.97;;;;;;;15.00;74.54;100256.28;5011948;28;20041;-48
2024/01/22 06:21:27;;;;;;;24.27;3.10;;;;;;;14.85;74.70;100281.91;5011560;28;20037;-46
2024/01/22 06:23:53;;;;;;;24.45;3.35;;;;;;;15.20;73.04;100274.38;5010203;28;20621;-45
2024/01/22 06:26:19;;;;;;;25.77;3.53;;;;;;;15.16;73.72;100288.47;5011262;28;20100;-48
2024/01/22 06:28:47;;;;;;;19.42;3.70;;;;;;;15.02;73.58;100293.03;5012395;28;20029;-46
2024/01/22 06:31:13;;;;;;;28.58;4.50;;;;;;;14.73;75.11;100274.19;5011949;28;20120;-45
2024/01/22 06:33:38;;;;;;;34.40;4.95;;;;;;;14.80;74.56;100275.84;5012958;28;20116;-46
2024/01/22 06:36:04;;;;;;;31.67;4.45;;;;;;;15.26;73.14;100286.56;5012126;28;20044;-46
2024/01/22 06:38:29;;;;;;;27.58;3.80;;;;;;;14.91;74.01;100284.44;5011118;28;20516;-49
2024/01/22 06:40:54;;;;;;;30.23;4.43;;;;;;;14.72;74.40;100296.94;5012210;28;20159;-47
2024/01/22 06:43:20;;;;;;;36.10;4.78;;;;;;;15.08;73.52;100311.31;5010558;28;20128;-48
2024/01/22 06:45:45;;;;;;;30.75;4.40;;;;;;;14.98;74.49;100296.59;5010567;28;20037;-47
2024/01/22 06:48:11;;;;;;;35.80;5.25;;;;;;;15.21;73.84;100284.00;5010602;28;20041;-45
2024/01/22 06:50:37;;;;;;;36.10;4.85;;;;;;;15.11;73.86;100295.53;5010870;28;20026;-47
2024/01/22 06:53:03;;;;;;;32.55;4.72;;;;;;;14.79;75.01;100295.97;5009555;28;20022;-47
2024/01/22 06:55:29;;;;;;;33.15;4.88;;;;;;;14.71;75.06;100304.81;5008604;28;20037;-46
2024/01/22 06:57:54;;;;;;;34.03;5.25;;;;;;;14.68;75.50;100318.00;5010713;28;20284;-49
2024/01/22 07:00:20;;;;;;;37.50;6.00;;;;;;;14.68;75.39;100297.88;5009829;28;20101;-49
2024/01/22 07:02:48;;;;;;;39.70;5.35;;;;;;;14.72;75.14;100309.19;5009237;28;20046;-47
2024/01/22 07:05:14;;;;;;;42.03;6.70;;;;;;;14.80;75.02;100302.09;5008825;28;20056;-45
2024/01/22 07:07:39;;;;;;;46.35;5.90;;;;;;;14.67;76.04;100318.88;5029990;28;20037;-45
2024/01/22 07:10:07;;;;;;;41.83;5.97;;;;;;;14.55;76.08;100323.38;5030183;28;20029;-45
2024/01/22 07:12:37;;;;;;;44.72;6.05;;;;;;;14.74;75.08;100310.91;5030364;28;20029;-48
2024/01/22 07:15:04;;;;;;;44.15;6.30;;;;;;;14.63;75.95;100330.28;5029085;28;20026;-48
2024/01/22 07:17:29;;;;;;;47.13;6.40;;;;;;;14.84;75.06;100322.16;5029267;28;20484;-50
2024/01/22 07:19:55;;;;;;;40.78;5.70;;;;;;;14.65;75.50;100321.50;5030030;28;20036;-49
2024/01/22 07:22:20;;;;;;;43.08;5.80;;;;;;;14.64;75.57;100308.44;5029455;28;20492;-48
2024/01/22 07:24:46;;;;;;;37.67;5.00;;;;;;;14.67;76.30;100340.72;5029256;28;20041;-48
2024/01/22 07:27:11;;;;;;;43.63;5.35;;;;;;;14.59;76.11;100334.69;5029768;28;20060;-46
2024/01/22 07:29:37;;;;;;;47.25;5.78;;;;;;;14.60;76.13;100313.69;5030283;28;20480;-50
2024/01/22 07:32:02;;;;;;;48.28;5.90;;;;;;;14.98;75.88;100339.47;5030567;28;20404;-46
2024/01/22 07:34:28;;;;;;;37.47;5.35;;;;;;;14.96;76.17;100327.22;5029843;28;20033;-47
2024/01/22 07:36:54;;;;;;;41.90;5.82;;;;;;;14.52;78.39;100346.13;5030355;28;20228;-46
2024/01/22 07:39:19;;;;;;;31.50;4.93;;;;;;;14.10;80.89;100345.66;5029663;28;20037;-52
2024/01/22 07:41:45;;;;;;;43.85;5.18;;;;;;;14.20;81.01;100346.47;5030397;28;20498;-47
2024/01/22 07:44:12;;;;;;;48.30;5.78;;;;;;;13.83;81.79;100374.75;5029239;28;20616;-47
2024/01/22 07:46:38;;;;;;;48.03;6.50;;;;;;;14.26;79.87;100366.50;5029543;28;20110;-49
2024/01/22 07:49:03;;;;;;;41.60;5.85;;;;;;;14.30;79.99;100382.19;5029912;28;20067;-50
2024/01/22 07:51:29;;;;;;;37.25;5.35;;;;;;;14.33;79.05;100389.16;5028970;28;20053;-47
2024/01/22 07:53:54;;;;;;;38.47;5.32;;;;;;;14.22;79.43;100403.22;5030300;28;20036;-49
2024/01/22 07:56:20;;;;;;;41.25;5.97;;;;;;;14.20;77.89;100407.63;5027580;28;20380;-52
2024/01/22 07:58:46;;;;;;;34.65;5.13;;;;;;;14.43;78.20;100402.19;5029534;28;20494;-45
2024/01/22 08:01:11;;;;;;;44.58;5.97;;;;;;;14.00;79.50;100420.03;5029378;28;20041;-45
2024/01/22 08:03:38;;;;;;;41.80;6.20;;;;;;;13.87;80.31;100417.50;5026558;28;20061;-45
2024/01/22 08:06:03;;;;;;;46.10;7.15;;;;;;;13.82;79.81;100433.25;5029519;28;20080;-48
2024/01/22 08:08:29;;;;;;;45.08;6.15;;;;;;;14.09;79.42;100432.16;5029103;28;20049;-47
2024/01/22 08:10:55;;;;;;;48.15;5.80;;;;;;;13.99;79.26;100434.00;5029601;28;20041;-45
2024/01/22 08:13:21;;;;;;;43.10;6.03;;;;;;;14.58;76.14;100430.00;5029267;28;20128;-47
2024/01/22 08:15:50;;;;;;;40.13;5.82;;;;;;;14.20;76.49;100432.97;5030625;28;20033;-44
2024/01/22 08:18:16;;;;;;;50.55;6.13;;;;;;;13.58;77.77;100412.47;5033262;28;20044;-46
2024/01/22 08:20:42;;;;;;;48.90;6.53;;;;;;;13.76;77.54;100438.53;5033477;28;20079;-47
2024/01/22 08:23:08;;;;;;;43.53;5.57;;;;;;;14.14;76.46;100441.75;5033482;28;20096;-49
2024/01/22 08:25:34;;;;;;;45.80;6.20;;;;;;;14.16;75.77;100460.94;5032744;28;20558;-46
2024/01/22 08:28:00;;;;;;;41.38;6.68;;;;;;;14.04;76.17;100450.56;5033262;28;20033;-49
2024/01/22 08:30:26;;;;;;;47.67;6.82;;;;;;;13.76;76.58;100462.13;5032980;28;20038;-48
2024/01/22 08:32:51;;;;;;;49.28;6.32;;;;;;;13.93;75.31;100462.00;5034133;28;20029;-47
2024/01/22 08:35:18;;;;;;;46.35;6.43;;;;;;;14.19;74.18;100471.44;5033164;28;20039;-47
2024/01/22 08:37:50;;;;;;;58.55;6.85;;;;;;;13.63;76.19;100463.94;5033222;28;20034;-44
2024/01/22 08:40:17;;;;;;;41.70;5.85;;;;;;;13.75;75.31;100469.09;5030081;28;20030;-46
2024/01/22 08:42:49;;;;;;;41.55;6.05;;;;;;;13.75;74.35;100461.25;5032306;28;20029;-48
2024/01/22 08:45:15;;;;;;;51.80;6.88;;;;;;;13.63;74.79;100490.13;5032875;28;20496;-48
2024/01/22 08:47:44;;;;;;;48.67;6.63;;;;;;;14.09;72.55;100495.06;5034050;28;20087;-48
2024/01/22 08:50:11;;;;;;;49.28;6.97;;;;;;;13.78;73.80;100508.38;5033121;28;20492;-47
2024/01/22 08:52:37;;;;;;;47.83;6.53;;;;;;;13.98;73.62;100500.41;5035840;28;20033;-50
2024/01/22 08:55:05;;;;;;;58.00;6.60;;;;;;;13.41;76.37;100509.44;5035842;28;20117;-45
2024/01/22 08:57:31;;;;;;;47.55;7.53;;;;;;;13.22;76.78;100510.38;5034629;28;20501;-46
2024/01/22 08:59:57;;;;;;;50.15;6.93;;;;;;;13.48;76.54;100508.53;5035721;28;20037;-50
2024/01/22 09:02:22;;;;;;;51.95;6.45;;;;;;;13.17;76.94;100522.63;5034609;28;20052;-49
2024/01/22 09:04:48;;;;;;;50.22;6.63;;;;;;;13.34;77.19;100520.81;5018533;28;20126;-44
2024/01/22 09:07:14;;;;;;;56.75;8.35;;;;;;;13.11;77.30;100533.94;5035813;28;20040;-48
2024/01/22 09:09:41;;;;;;;44.42;6.28;;;;;;;13.35;76.73;100535.66;5037178;28;20033;-45
2024/01/22 09:12:06;;;;;;;48.58;6.50;;;;;;;13.56;75.91;100539.94;5035722;28;20128;-46
2024/01/22 09:14:31;;;;;;;39.97;5.88;;;;;;;13.30;75.69;100553.09;5031932;28;20552;-46
2024/01/22 09:16:57;;;;;;;50.40;6.93;;;;;;;13.28;75.19;100560.97;5031446;28;20033;-50
2024/01/22 09:19:22;;;;;;;40.10;5.35;;;;;;;13.16;75.47;100571.50;5030871;28;20155;-45
2024/01/22 09:21:48;;;;;;;33.67;4.72;;;;;;;13.36;75.06;100579.28;5032779;28;20036;-47
2024/01/22 09:24:13;;;;;;;35.47;5.22;;;;;;;13.19;74.61;100578.44;5030008;28;20034;-47
2024/01/22 09:26:38;;;;;;;39.47;5.25;;;;;;;12.81;74.98;100588.91;5032468;28;20068;-46
2024/01/22 09:29:03;;;;;;;30.10;4.55;;;;;;;13.34;73.01;100592.38;5033139;28;20029;-49
2024/01/22 09:31:29;;;;;;;31.38;4.53;;;;;;;13.18;73.84;100584.53;5032720;28;20107;-47
2024/01/22 09:33:55;;;;;;;32.97;3.70;;;;;;;13.15;74.02;100589.81;5033625;28;20112;-45
2024/01/22 09:36:21;;;;;;;27.00;3.83;;;;;;;13.40;72.17;100595.00;5032291;28;20033;-48
2024/01/22 09:38:46;;;;;;;25.73;3.90;;;;;;;12.85;73.55;100593.28;5033673;28;20037;-48
2024/01/22 09:41:13;;;;;;;29.20;3.35;;;;;;;12.92;73.44;100608.13;5033440;28;20040;-46
2024/01/22 09:43:39;;;;;;;32.17;3.55;;;;;;;13.02;72.95;100629.03;5033352;28;20029;-47
2024/01/22 09:46:05;;;;;;;27.48;3.35;;;;;;;12.93;72.90;100613.31;5036452;28;20037;-46
2024/01/22 09:48:32;;;;;;;30.13;4.28;;;;;;;12.93;72.95;100612.44;5036566;28;20029;-45
2024/01/22 09:51:01;;;;;;;23.33;3.50;;;;;;;12.70;73.07;100627.28;5033063;28;20045;-45
2024/01/22 09:53:27;;;;;;;27.83;3.80;;;;;;;12.88;72.40;100637.75;5031815;28;20415;-46
2024/01/22 09:55:53;;;;;;;29.75;3.63;;;;;;;12.73;72.42;100641.25;5031913;28;20049;-49
2024/01/22 09:58:26;;;;;;;30.33;3.30;;;;;;;13.25;72.00;100636.91;5031443;28;20038;-47
2024/01/22 10:00:52;;;;;;;21.70;3.00;;;;;;;13.08;70.71;100645.59;5031488;28;20060;-48
2024/01/22 10:03:17;;;;;;;24.27;3.28;;;;;;;12.91;71.40;100643.88;5031762;28;20091;-47
2024/01/22 10:05:43;;;;;;;24.38;3.38;;;;;;;13.16;70.36;100655.25;5032853;28;20035;-45
2024/01/22 10:08:08;;;;;;;24.85;3.00;;;;;;;13.07;70.36;100660.44;5034461;28;20038;-47
2024/01/22 10:10:33;;;;;;;25.95;3.50;;;;;;;12.97;70.62;100662.19;5032025;28;20037;-49
2024/01/22 10:13:04;;;;;;;26.33;3.45;;;;;;;13.14;70.24;100674.44;5032718;28;20033;-45
2024/01/22 10:15:30;;;;;;;26.70;3.50;;;;;;;13.09;69.18;100652.59;5031094;28;20071;-47
2024/01/22 10:18:16;;;;;;;26.60;3.03;;;;;;;12.96;70.11;100672.66;5032879;28;20045;-47
2024/01/22 10:20:43;;;;;;;26.98;3.30;;;;;;;13.20;69.14;100688.38;5013080;28;20037;-46
2024/01/22 10:23:10;;;;;;;26.95;3.70;;;;;;;13.75;67.60;100688.31;5027910;28;20040;-46
2024/01/22 10:25:36;;;;;;;23.23;3.65;;;;;;;13.31;68.03;100691.00;5010539;28;20034;-48
2024/01/22 10:28:19;;;;;;;29.23;3.80;;;;;;;13.24;69.01;100697.97;5011671;28;20044;-49
2024/01/22 10:31:02;;;;;;;23.33;3.47;;;;;;;13.37;67.47;100691.88;5010948;28;20048;-46
2024/01/22 10:33:27;;;;;;;24.00;3.45;;;;;;;13.33;68.04;100707.59;5010382;28;20470;-48
2024/01/22 10:35:53;;;;;;;22.23;4.18;;;;;;;13.42;67.92;100698.88;5010777;28;20125;-45
2024/01/22 10:38:19;;;;;;;26.83;3.38;;;;;;;13.32;66.94;100714.56;5010446;28;20128;-45
2024/01/22 10:40:46;;;;;;;24.33;3.95;;;;;;;13.25;67.54;100717.19;5010969;28;20026;-48
2024/01/22 10:43:19;;;;;;;24.35;3.75;;;;;;;13.36;66.95;100710.19;5010371;28;20042;-49
2024/01/22 10:45:47;;;;;;;19.60;3.38;;;;;;;13.46;66.87;100714.56;5010470;28;20431;-47
2024/01/22 10:48:15;;;;;;;27.58;3.47;;;;;;;13.37;65.36;100720.66;5010770;28;20054;-50
2024/01/22 10:50:42;;;;;;;21.45;3.47;;;;;;;13.05;66.78;100724.13;5011162;28;20470;-53
2024/01/22 10:53:09;;;;;;;21.65;2.72;;;;;;;13.17;65.69;100719.81;5011576;28;20084;-44
2024/01/22 10:55:35;;;;;;;26.50;3.80;;;;;;;13.32;66.07;100732.03;5030471;28;20085;-49
2024/01/22 10:58:08;;;;;;;31.10;3.63;;;;;;;13.82;64.73;100738.09;5030638;28;20618;-45
2024/01/22 11:00:40;;;;;;;23.63;3.45;;;;;;;13.53;64.31;100741.63;5029807;28;20557;-46
2024/01/22 11:03:09;;;;;;;30.08;3.55;;;;;;;13.38;64.56;100743.38;5030662;28;20045;-49
2024/01/22 11:05:41;;;;;;;22.67;3.30;;;;;;;13.59;63.81;100742.50;5030101;28;20029;-44
2024/01/22 11:08:11;;;;;;;23.50;3.70;;;;;;;13.70;63.37;100753.81;5030953;28;20037;-45
2024/01/22 11:10:39;;;;;;;22.30;4.03;;;;;;;13.62;63.43;100754.69;5010540;28;20045;-45
2024/01/22 11:13:06;;;;;;;26.35;3.53;;;;;;;13.77;62.90;100755.56;5011106;28;20033;-46